sensor_id;sensor_type;location;lat;lon;timestamp;pressure;altitude;pressure_sealevel;temperature
45393;BMP280;31129;44.810;10.334;2023-05-07T00:00:44;100675.75;;;21.18
45393;BMP280;31129;44.810;10.334;2023-05-07T00:03:09;100678.78;;;21.07
45393;BMP280;31129;44.810;10.334;2023-05-07T00:05:36;100674.41;;;21.12
45393;BMP280;31129;44.810;10.334;2023-05-07T00:08:03;100675.97;;;21.00
45393;BMP280;31129;44.810;10.334;2023-05-07T00:10:29;100673.03;;;21.05
45393;BMP280;31129;44.810;10.334;2023-05-07T00:12:54;100671.56;;;21.04
45393;BMP280;31129;44.810;10.334;2023-05-07T00:15:22;100683.47;;;21.12
45393;BMP280;31129;44.810;10.334;2023-05-07T00:17:48;100690.78;;;21.02
45393;BMP280;31129;44.810;10.334;2023-05-07T00:20:13;100690.59;;;21.00
45393;BMP280;31129;44.810;10.334;2023-05-07T00:22:42;100694.09;;;21.01
45393;BMP280;31129;44.810;10.334;2023-05-07T00:25:08;100694.97;;;20.75
45393;BMP280;31129;44.810;10.334;2023-05-07T00:27:37;100699.78;;;20.74
45393;BMP280;31129;44.810;10.334;2023-05-07T00:30:02;100700.06;;;20.63
45393;BMP280;31129;44.810;10.334;2023-05-07T00:32:31;100704.94;;;20.70
45393;BMP280;31129;44.810;10.334;2023-05-07T00:35:11;100693.19;;;20.43
45393;BMP280;31129;44.810;10.334;2023-05-07T00:37:53;100707.91;;;20.51
45393;BMP280;31129;44.810;10.334;2023-05-07T00:40:22;100702.34;;;20.51
45393;BMP280;31129;44.810;10.334;2023-05-07T00:42:48;100693.72;;;20.42
45393;BMP280;31129;44.810;10.334;2023-05-07T00:45:16;100698.09;;;20.50
45393;BMP280;31129;44.810;10.334;2023-05-07T00:47:48;100708.47;;;20.37
45393;BMP280;31129;44.810;10.334;2023-05-07T00:50:16;100720.84;;;20.36
45393;BMP280;31129;44.810;10.334;2023-05-07T00:52:45;100720.31;;;20.37
45393;BMP280;31129;44.810;10.334;2023-05-07T00:55:11;100707.25;;;20.45
45393;BMP280;31129;44.810;10.334;2023-05-07T00:57:40;100717.13;;;20.33
45393;BMP280;31129;44.810;10.334;2023-05-07T01:00:15;100721.28;;;20.27
45393;BMP280;31129;44.810;10.334;2023-05-07T01:02:44;100718.84;;;20.23
45393;BMP280;31129;44.810;10.334;2023-05-07T01:05:12;100713.09;;;20.21
45393;BMP280;31129;44.810;10.334;2023-05-07T01:07:40;100713.63;;;20.20
45393;BMP280;31129;44.810;10.334;2023-05-07T01:10:09;100721.09;;;20.11
45393;BMP280;31129;44.810;10.334;2023-05-07T01:12:39;100712.03;;;20.11
45393;BMP280;31129;44.810;10.334;2023-05-07T01:15:05;100711.19;;;20.03
45393;BMP280;31129;44.810;10.334;2023-05-07T01:17:38;100710.66;;;20.04
45393;BMP280;31129;44.810;10.334;2023-05-07T01:20:30;100718.25;;;20.04
45393;BMP280;31129;44.810;10.334;2023-05-07T01:22:57;100717.50;;;19.90
45393;BMP280;31129;44.810;10.334;2023-05-07T01:25:25;100714.28;;;19.99
45393;BMP280;31129;44.810;10.334;2023-05-07T01:27:55;100714.59;;;20.09
45393;BMP280;31129;44.810;10.334;2023-05-07T01:30:25;100716.00;;;20.02
45393;BMP280;31129;44.810;10.334;2023-05-07T01:33:00;100732.84;;;20.04
45393;BMP280;31129;44.810;10.334;2023-05-07T01:35:32;100724.09;;;20.00
45393;BMP280;31129;44.810;10.334;2023-05-07T01:38:03;100728.03;;;20.18
45393;BMP280;31129;44.810;10.334;2023-05-07T01:40:35;100729.72;;;20.21
45393;BMP280;31129;44.810;10.334;2023-05-07T01:43:04;100736.13;;;20.03
45393;BMP280;31129;44.810;10.334;2023-05-07T01:45:40;100737.72;;;19.98
45393;BMP280;31129;44.810;10.334;2023-05-07T01:48:14;100736.44;;;19.86
45393;BMP280;31129;44.810;10.334;2023-05-07T01:50:44;100735.41;;;19.89
45393;BMP280;31129;44.810;10.334;2023-05-07T01:53:15;100736.00;;;20.22
45393;BMP280;31129;44.810;10.334;2023-05-07T01:55:44;100729.63;;;20.00
45393;BMP280;31129;44.810;10.334;2023-05-07T01:58:10;100719.41;;;19.95
45393;BMP280;31129;44.810;10.334;2023-05-07T02:00:36;100729.66;;;19.87
45393;BMP280;31129;44.810;10.334;2023-05-07T02:03:02;100725.47;;;19.81
45393;BMP280;31129;44.810;10.334;2023-05-07T02:05:38;100728.13;;;19.86
45393;BMP280;31129;44.810;10.334;2023-05-07T02:08:26;100724.00;;;19.80
45393;BMP280;31129;44.810;10.334;2023-05-07T02:10:52;100728.38;;;19.75
45393;BMP280;31129;44.810;10.334;2023-05-07T02:13:19;100720.25;;;19.77
45393;BMP280;31129;44.810;10.334;2023-05-07T02:15:45;100720.25;;;19.90
45393;BMP280;31129;44.810;10.334;2023-05-07T02:18:16;100724.75;;;19.67
45393;BMP280;31129;44.810;10.334;2023-05-07T02:20:42;100721.84;;;19.59
45393;BMP280;31129;44.810;10.334;2023-05-07T02:23:08;100723.56;;;19.62
45393;BMP280;31129;44.810;10.334;2023-05-07T02:25:34;100725.16;;;19.45
45393;BMP280;31129;44.810;10.334;2023-05-07T02:27:59;100718.03;;;19.49
45393;BMP280;31129;44.810;10.334;2023-05-07T02:30:51;100723.56;;;19.49
45393;BMP280;31129;44.810;10.334;2023-05-07T02:33:17;100726.59;;;19.32
45393;BMP280;31129;44.810;10.334;2023-05-07T02:35:43;100728.84;;;19.34
45393;BMP280;31129;44.810;10.334;2023-05-07T02:38:10;100730.38;;;19.48
45393;BMP280;31129;44.810;10.334;2023-05-07T02:40:37;100737.38;;;19.36
45393;BMP280;31129;44.810;10.334;2023-05-07T02:43:05;100729.94;;;19.44
45393;BMP280;31129;44.810;10.334;2023-05-07T02:45:32;100727.19;;;19.44
45393;BMP280;31129;44.810;10.334;2023-05-07T02:47:58;100728.13;;;19.47
45393;BMP280;31129;44.810;10.334;2023-05-07T02:50:24;100727.69;;;19.56
45393;BMP280;31129;44.810;10.334;2023-05-07T02:52:51;100731.75;;;19.42
45393;BMP280;31129;44.810;10.334;2023-05-07T02:55:16;100728.75;;;19.40
45393;BMP280;31129;44.810;10.334;2023-05-07T02:57:42;100730.88;;;19.33
45393;BMP280;31129;44.810;10.334;2023-05-07T03:00:15;100731.81;;;19.23
45393;BMP280;31129;44.810;10.334;2023-05-07T03:02:48;100733.44;;;19.31
45393;BMP280;31129;44.810;10.334;2023-05-07T03:05:13;100727.25;;;19.25
45393;BMP280;31129;44.810;10.334;2023-05-07T03:07:39;100734.84;;;19.19
45393;BMP280;31129;44.810;10.334;2023-05-07T03:10:06;100732.41;;;19.16
45393;BMP280;31129;44.810;10.334;2023-05-07T03:12:32;100720.78;;;19.04
45393;BMP280;31129;44.810;10.334;2023-05-07T03:14:57;100725.28;;;18.88
45393;BMP280;31129;44.810;10.334;2023-05-07T03:17:23;100721.19;;;18.76
45393;BMP280;31129;44.810;10.334;2023-05-07T03:19:49;100722.09;;;18.84
45393;BMP280;31129;44.810;10.334;2023-05-07T03:22:14;100719.66;;;18.81
45393;BMP280;31129;44.810;10.334;2023-05-07T03:24:40;100730.19;;;18.64
45393;BMP280;31129;44.810;10.334;2023-05-07T03:27:06;100732.13;;;18.69
45393;BMP280;31129;44.810;10.334;2023-05-07T03:29:35;100724.41;;;18.62
45393;BMP280;31129;44.810;10.334;2023-05-07T03:32:00;100732.59;;;18.54
45393;BMP280;31129;44.810;10.334;2023-05-07T03:34:27;100730.03;;;18.37
45393;BMP280;31129;44.810;10.334;2023-05-07T03:36:52;100739.19;;;18.45
45393;BMP280;31129;44.810;10.334;2023-05-07T03:39:19;100733.78;;;18.40
45393;BMP280;31129;44.810;10.334;2023-05-07T03:41:44;100735.09;;;18.33
45393;BMP280;31129;44.810;10.334;2023-05-07T03:44:10;100729.28;;;18.37
45393;BMP280;31129;44.810;10.334;2023-05-07T03:46:35;100736.97;;;18.25
45393;BMP280;31129;44.810;10.334;2023-05-07T03:49:04;100736.31;;;18.13
45393;BMP280;31129;44.810;10.334;2023-05-07T03:51:30;100738.66;;;18.28
45393;BMP280;31129;44.810;10.334;2023-05-07T03:53:55;100737.47;;;18.24
45393;BMP280;31129;44.810;10.334;2023-05-07T03:56:23;100743.81;;;18.19
45393;BMP280;31129;44.810;10.334;2023-05-07T03:58:54;100744.59;;;18.13
45393;BMP280;31129;44.810;10.334;2023-05-07T04:01:19;100755.91;;;18.16
45393;BMP280;31129;44.810;10.334;2023-05-07T04:03:45;100749.78;;;17.98
45393;BMP280;31129;44.810;10.334;2023-05-07T04:06:11;100755.09;;;18.21
45393;BMP280;31129;44.810;10.334;2023-05-07T04:08:37;100753.88;;;18.16
45393;BMP280;31129;44.810;10.334;2023-05-07T04:11:05;100756.09;;;18.18
45393;BMP280;31129;44.810;10.334;2023-05-07T04:13:32;100746.50;;;18.24
45393;BMP280;31129;44.810;10.334;2023-05-07T04:16:01;100758.88;;;18.18
45393;BMP280;31129;44.810;10.334;2023-05-07T04:18:28;100755.03;;;18.02
45393;BMP280;31129;44.810;10.334;2023-05-07T04:20:53;100756.81;;;17.99
45393;BMP280;31129;44.810;10.334;2023-05-07T04:23:20;100765.53;;;18.28
45393;BMP280;31129;44.810;10.334;2023-05-07T04:25:45;100769.06;;;18.28
45393;BMP280;31129;44.810;10.334;2023-05-07T04:28:20;100771.50;;;18.32
45393;BMP280;31129;44.810;10.334;2023-05-07T04:30:46;100771.50;;;18.32
45393;BMP280;31129;44.810;10.334;2023-05-07T04:33:15;100767.75;;;18.35
45393;BMP280;31129;44.810;10.334;2023-05-07T04:35:47;100776.66;;;18.22
45393;BMP280;31129;44.810;10.334;2023-05-07T04:38:15;100772.88;;;18.25
45393;BMP280;31129;44.810;10.334;2023-05-07T04:40:42;100769.50;;;18.32
45393;BMP280;31129;44.810;10.334;2023-05-07T04:43:10;100769.81;;;18.29
45393;BMP280;31129;44.810;10.334;2023-05-07T04:45:43;100780.13;;;18.28
45393;BMP280;31129;44.810;10.334;2023-05-07T04:48:09;100777.78;;;18.32
45393;BMP280;31129;44.810;10.334;2023-05-07T04:50:37;100778.63;;;18.27
45393;BMP280;31129;44.810;10.334;2023-05-07T04:53:03;100784.59;;;18.31
45393;BMP280;31129;44.810;10.334;2023-05-07T04:55:29;100786.63;;;18.31
45393;BMP280;31129;44.810;10.334;2023-05-07T04:57:54;100790.09;;;18.31
45393;BMP280;31129;44.810;10.334;2023-05-07T05:00:21;100790.47;;;18.22
45393;BMP280;31129;44.810;10.334;2023-05-07T05:02:48;100787.50;;;18.20
45393;BMP280;31129;44.810;10.334;2023-05-07T05:05:18;100798.19;;;18.29
45393;BMP280;31129;44.810;10.334;2023-05-07T05:07:44;100799.91;;;18.32
45393;BMP280;31129;44.810;10.334;2023-05-07T05:10:19;100792.09;;;18.36
45393;BMP280;31129;44.810;10.334;2023-05-07T05:12:51;100802.28;;;18.23
45393;BMP280;31129;44.810;10.334;2023-05-07T05:15:22;100800.53;;;18.44
45393;BMP280;31129;44.810;10.334;2023-05-07T05:17:49;100798.91;;;18.35
45393;BMP280;31129;44.810;10.334;2023-05-07T05:20:18;100796.19;;;18.48
45393;BMP280;31129;44.810;10.334;2023-05-07T05:22:55;100803.50;;;18.46
45393;BMP280;31129;44.810;10.334;2023-05-07T05:25:21;100799.72;;;18.49
45393;BMP280;31129;44.810;10.334;2023-05-07T05:27:52;100810.41;;;18.39
45393;BMP280;31129;44.810;10.334;2023-05-07T05:30:18;100811.34;;;18.42
45393;BMP280;31129;44.810;10.334;2023-05-07T05:32:48;100807.41;;;18.37
45393;BMP280;31129;44.810;10.334;2023-05-07T05:35:14;100814.13;;;18.42
45393;BMP280;31129;44.810;10.334;2023-05-07T05:37:41;100814.47;;;18.33
45393;BMP280;31129;44.810;10.334;2023-05-07T05:40:07;100809.41;;;18.37
45393;BMP280;31129;44.810;10.334;2023-05-07T05:42:33;100803.69;;;18.35
45393;BMP280;31129;44.810;10.334;2023-05-07T05:44:59;100809.78;;;18.46
45393;BMP280;31129;44.810;10.334;2023-05-07T05:47:26;100808.19;;;18.57
45393;BMP280;31129;44.810;10.334;2023-05-07T05:49:54;100820.81;;;18.52
45393;BMP280;31129;44.810;10.334;2023-05-07T05:52:20;100809.34;;;18.42
45393;BMP280;31129;44.810;10.334;2023-05-07T05:54:49;100821.81;;;18.49
45393;BMP280;31129;44.810;10.334;2023-05-07T05:57:15;100815.56;;;18.48
45393;BMP280;31129;44.810;10.334;2023-05-07T05:59:41;100804.97;;;18.52
45393;BMP280;31129;44.810;10.334;2023-05-07T06:02:07;100816.59;;;18.64
45393;BMP280;31129;44.810;10.334;2023-05-07T06:04:33;100805.06;;;18.66
45393;BMP280;31129;44.810;10.334;2023-05-07T06:06:59;100807.31;;;18.67
45393;BMP280;31129;44.810;10.334;2023-05-07T06:09:25;100800.72;;;18.70
45393;BMP280;31129;44.810;10.334;2023-05-07T06:11:51;100803.47;;;18.70
45393;BMP280;31129;44.810;10.334;2023-05-07T06:14:17;100803.78;;;18.85
45393;BMP280;31129;44.810;10.334;2023-05-07T06:16:42;100814.84;;;18.85
45393;BMP280;31129;44.810;10.334;2023-05-07T06:19:08;100810.91;;;18.81
45393;BMP280;31129;44.810;10.334;2023-05-07T06:21:33;100809.75;;;18.89
45393;BMP280;31129;44.810;10.334;2023-05-07T06:23:59;100816.56;;;18.88
45393;BMP280;31129;44.810;10.334;2023-05-07T06:26:27;100808.56;;;19.04
45393;BMP280;31129;44.810;10.334;2023-05-07T06:28:53;100806.84;;;19.01
45393;BMP280;31129;44.810;10.334;2023-05-07T06:31:21;100811.75;;;19.08
45393;BMP280;31129;44.810;10.334;2023-05-07T06:33:56;100810.63;;;19.16
45393;BMP280;31129;44.810;10.334;2023-05-07T06:36:31;100811.72;;;19.13
45393;BMP280;31129;44.810;10.334;2023-05-07T06:38:59;100805.22;;;19.24
45393;BMP280;31129;44.810;10.334;2023-05-07T06:41:33;100805.97;;;19.24
45393;BMP280;31129;44.810;10.334;2023-05-07T06:44:25;100803.88;;;19.30
45393;BMP280;31129;44.810;10.334;2023-05-07T06:47:03;100801.31;;;19.32
45393;BMP280;31129;44.810;10.334;2023-05-07T06:49:33;100801.69;;;19.42
45393;BMP280;31129;44.810;10.334;2023-05-07T06:52:02;100805.25;;;19.69
45393;BMP280;31129;44.810;10.334;2023-05-07T06:54:31;100812.91;;;19.63
45393;BMP280;31129;44.810;10.334;2023-05-07T06:57:14;100814.75;;;19.73
45393;BMP280;31129;44.810;10.334;2023-05-07T06:59:47;100807.50;;;19.57
45393;BMP280;31129;44.810;10.334;2023-05-07T07:02:13;100809.09;;;19.66
45393;BMP280;31129;44.810;10.334;2023-05-07T07:04:54;100801.84;;;19.76
45393;BMP280;31129;44.810;10.334;2023-05-07T07:07:25;100804.75;;;19.84
45393;BMP280;31129;44.810;10.334;2023-05-07T07:09:51;100796.66;;;19.99
45393;BMP280;31129;44.810;10.334;2023-05-07T07:12:36;100803.38;;;19.90
45393;BMP280;31129;44.810;10.334;2023-05-07T07:15:02;100796.88;;;20.14
45393;BMP280;31129;44.810;10.334;2023-05-07T07:17:28;100800.59;;;20.17
45393;BMP280;31129;44.810;10.334;2023-05-07T07:19:54;100804.44;;;20.40
45393;BMP280;31129;44.810;10.334;2023-05-07T07:22:20;100800.28;;;20.33
45393;BMP280;31129;44.810;10.334;2023-05-07T07:24:46;100803.03;;;20.46
45393;BMP280;31129;44.810;10.334;2023-05-07T07:27:17;100799.94;;;20.50
45393;BMP280;31129;44.810;10.334;2023-05-07T07:29:46;100796.88;;;20.74
45393;BMP280;31129;44.810;10.334;2023-05-07T07:32:11;100799.25;;;20.91
45393;BMP280;31129;44.810;10.334;2023-05-07T07:34:37;100796.03;;;20.79
45393;BMP280;31129;44.810;10.334;2023-05-07T07:37:03;100791.09;;;20.85
45393;BMP280;31129;44.810;10.334;2023-05-07T07:39:32;100793.00;;;21.11
45393;BMP280;31129;44.810;10.334;2023-05-07T07:41:58;100793.34;;;21.28
45393;BMP280;31129;44.810;10.334;2023-05-07T07:46:57;100791.03;;;21.19
45393;BMP280;31129;44.810;10.334;2023-05-07T07:49:27;100790.78;;;21.30
45393;BMP280;31129;44.810;10.334;2023-05-07T07:51:54;100795.63;;;21.37
45393;BMP280;31129;44.810;10.334;2023-05-07T07:54:23;100800.13;;;21.41
45393;BMP280;31129;44.810;10.334;2023-05-07T07:56:48;100797.38;;;21.48
45393;BMP280;31129;44.810;10.334;2023-05-07T07:59:14;100801.72;;;21.57
45393;BMP280;31129;44.810;10.334;2023-05-07T08:01:45;100803.34;;;21.52
45393;BMP280;31129;44.810;10.334;2023-05-07T08:04:13;100803.75;;;21.56
45393;BMP280;31129;44.810;10.334;2023-05-07T08:06:43;100806.00;;;21.86
45393;BMP280;31129;44.810;10.334;2023-05-07T08:09:10;100812.25;;;21.79
45393;BMP280;31129;44.810;10.334;2023-05-07T08:11:37;100802.13;;;21.89
45393;BMP280;31129;44.810;10.334;2023-05-07T08:14:06;100811.84;;;22.03
45393;BMP280;31129;44.810;10.334;2023-05-07T08:16:35;100805.75;;;22.12
45393;BMP280;31129;44.810;10.334;2023-05-07T08:21:32;100804.16;;;22.24
45393;BMP280;31129;44.810;10.334;2023-05-07T08:23:58;100814.66;;;22.54
45393;BMP280;31129;44.810;10.334;2023-05-07T08:26:24;100801.50;;;22.55
45393;BMP280;31129;44.810;10.334;2023-05-07T08:28:57;100801.53;;;22.70
45393;BMP280;31129;44.810;10.334;2023-05-07T08:31:46;100797.09;;;22.67
45393;BMP280;31129;44.810;10.334;2023-05-07T08:34:12;100799.91;;;22.90
45393;BMP280;31129;44.810;10.334;2023-05-07T08:36:47;100799.88;;;22.75
45393;BMP280;31129;44.810;10.334;2023-05-07T08:39:20;100800.06;;;22.77
45393;BMP280;31129;44.810;10.334;2023-05-07T08:42:13;100792.84;;;23.04
45393;BMP280;31129;44.810;10.334;2023-05-07T08:44:45;100801.41;;;23.21
45393;BMP280;31129;44.810;10.334;2023-05-07T08:47:12;100797.53;;;23.24
45393;BMP280;31129;44.810;10.334;2023-05-07T08:49:39;100788.78;;;23.35
45393;BMP280;31129;44.810;10.334;2023-05-07T08:52:06;100788.44;;;23.39
45393;BMP280;31129;44.810;10.334;2023-05-07T08:54:32;100787.44;;;23.51
45393;BMP280;31129;44.810;10.334;2023-05-07T08:56:59;100795.25;;;23.68
45393;BMP280;31129;44.810;10.334;2023-05-07T08:59:26;100782.44;;;23.50
45393;BMP280;31129;44.810;10.334;2023-05-07T09:01:52;100793.91;;;23.77
45393;BMP280;31129;44.810;10.334;2023-05-07T09:04:18;100787.34;;;23.97
45393;BMP280;31129;44.810;10.334;2023-05-07T09:06:44;100785.09;;;24.03
45393;BMP280;31129;44.810;10.334;2023-05-07T09:09:24;100787.66;;;24.09
45393;BMP280;31129;44.810;10.334;2023-05-07T09:11:57;100784.69;;;24.14
45393;BMP280;31129;44.810;10.334;2023-05-07T09:14:27;100788.59;;;24.11
45393;BMP280;31129;44.810;10.334;2023-05-07T09:16:54;100785.72;;;24.26
45393;BMP280;31129;44.810;10.334;2023-05-07T09:19:24;100776.34;;;24.47
45393;BMP280;31129;44.810;10.334;2023-05-07T09:22:01;100781.34;;;24.48
45393;BMP280;31129;44.810;10.334;2023-05-07T09:24:33;100788.56;;;24.51
45393;BMP280;31129;44.810;10.334;2023-05-07T09:27:05;100781.69;;;24.52
45393;BMP280;31129;44.810;10.334;2023-05-07T09:29:32;100786.19;;;24.48
45393;BMP280;31129;44.810;10.334;2023-05-07T09:32:06;100777.94;;;24.57
45393;BMP280;31129;44.810;10.334;2023-05-07T09:34:33;100780.03;;;24.74
45393;BMP280;31129;44.810;10.334;2023-05-07T09:37:05;100772.59;;;24.76
45393;BMP280;31129;44.810;10.334;2023-05-07T09:39:39;100775.31;;;24.59
45393;BMP280;31129;44.810;10.334;2023-05-07T09:42:05;100775.22;;;24.74
45393;BMP280;31129;44.810;10.334;2023-05-07T09:44:43;100777.06;;;24.72
45393;BMP280;31129;44.810;10.334;2023-05-07T09:47:18;100782.44;;;24.53
45393;BMP280;31129;44.810;10.334;2023-05-07T09:49:46;100785.91;;;24.85
45393;BMP280;31129;44.810;10.334;2023-05-07T09:52:14;100784.34;;;24.75
45393;BMP280;31129;44.810;10.334;2023-05-07T09:54:46;100781.94;;;24.71
45393;BMP280;31129;44.810;10.334;2023-05-07T09:57:15;100774.28;;;24.72
45393;BMP280;31129;44.810;10.334;2023-05-07T09:59:46;100769.59;;;24.82
45393;BMP280;31129;44.810;10.334;2023-05-07T10:02:15;100776.22;;;24.86
45393;BMP280;31129;44.810;10.334;2023-05-07T10:04:48;100774.97;;;24.80
45393;BMP280;31129;44.810;10.334;2023-05-07T10:07:17;100768.88;;;24.99
45393;BMP280;31129;44.810;10.334;2023-05-07T10:09:44;100772.13;;;25.12
45393;BMP280;31129;44.810;10.334;2023-05-07T10:12:23;100768.53;;;24.95
45393;BMP280;31129;44.810;10.334;2023-05-07T10:14:50;100767.56;;;25.17
45393;BMP280;31129;44.810;10.334;2023-05-07T10:17:18;100764.03;;;25.16
45393;BMP280;31129;44.810;10.334;2023-05-07T10:19:45;100753.59;;;25.17
45393;BMP280;31129;44.810;10.334;2023-05-07T10:22:13;100754.56;;;25.37
45393;BMP280;31129;44.810;10.334;2023-05-07T10:24:44;100762.69;;;25.42
45393;BMP280;31129;44.810;10.334;2023-05-07T10:27:15;100756.75;;;25.21
45393;BMP280;31129;44.810;10.334;2023-05-07T10:32:44;100767.22;;;25.38
45393;BMP280;31129;44.810;10.334;2023-05-07T10:35:24;100759.97;;;25.69
45393;BMP280;31129;44.810;10.334;2023-05-07T10:37:51;100756.28;;;25.66
45393;BMP280;31129;44.810;10.334;2023-05-07T10:40:19;100761.69;;;25.82
45393;BMP280;31129;44.810;10.334;2023-05-07T10:43:00;100756.97;;;25.84
45393;BMP280;31129;44.810;10.334;2023-05-07T10:45:28;100753.88;;;25.63
45393;BMP280;31129;44.810;10.334;2023-05-07T10:48:11;100750.34;;;25.62
45393;BMP280;31129;44.810;10.334;2023-05-07T10:50:39;100745.16;;;25.76
45393;BMP280;31129;44.810;10.334;2023-05-07T10:53:26;100755.00;;;25.50
45393;BMP280;31129;44.810;10.334;2023-05-07T10:58:46;100745.56;;;25.72
45393;BMP280;31129;44.810;10.334;2023-05-07T11:04:20;100744.22;;;26.17
45393;BMP280;31129;44.810;10.334;2023-05-07T11:07:43;100740.47;;;26.32
45393;BMP280;31129;44.810;10.334;2023-05-07T11:10:23;100740.84;;;26.46
45393;BMP280;31129;44.810;10.334;2023-05-07T11:13:18;100745.03;;;26.37
45393;BMP280;31129;44.810;10.334;2023-05-07T11:15:48;100748.09;;;26.58
45393;BMP280;31129;44.810;10.334;2023-05-07T11:18:50;100742.59;;;26.51
45393;BMP280;31129;44.810;10.334;2023-05-07T11:21:39;100733.81;;;26.28
45393;BMP280;31129;44.810;10.334;2023-05-07T11:24:14;100736.88;;;26.49
45393;BMP280;31129;44.810;10.334;2023-05-07T11:26:52;100736.19;;;26.31
45393;BMP280;31129;44.810;10.334;2023-05-07T11:29:21;100728.72;;;26.07
45393;BMP280;31129;44.810;10.334;2023-05-07T11:31:52;100728.97;;;26.28
45393;BMP280;31129;44.810;10.334;2023-05-07T11:34:21;100734.97;;;26.61
45393;BMP280;31129;44.810;10.334;2023-05-07T11:36:48;100738.91;;;26.48
45393;BMP280;31129;44.810;10.334;2023-05-07T11:41:55;100731.69;;;27.01
45393;BMP280;31129;44.810;10.334;2023-05-07T11:44:21;100736.13;;;27.13
45393;BMP280;31129;44.810;10.334;2023-05-07T11:46:55;100728.28;;;26.93
45393;BMP280;31129;44.810;10.334;2023-05-07T11:49:25;100728.00;;;27.17
45393;BMP280;31129;44.810;10.334;2023-05-07T11:51:52;100728.41;;;27.14
45393;BMP280;31129;44.810;10.334;2023-05-07T11:54:20;100724.00;;;27.11
45393;BMP280;31129;44.810;10.334;2023-05-07T11:56:46;100724.00;;;27.40
45393;BMP280;31129;44.810;10.334;2023-05-07T11:59:12;100718.84;;;27.27
45393;BMP280;31129;44.810;10.334;2023-05-07T12:01:45;100719.84;;;27.70
45393;BMP280;31129;44.810;10.334;2023-05-07T12:04:10;100719.78;;;27.89
45393;BMP280;31129;44.810;10.334;2023-05-07T12:06:36;100722.78;;;27.62
45393;BMP280;31129;44.810;10.334;2023-05-07T12:09:03;100723.81;;;27.76
45393;BMP280;31129;44.810;10.334;2023-05-07T12:11:35;100713.66;;;27.42
45393;BMP280;31129;44.810;10.334;2023-05-07T12:14:01;100721.75;;;27.67
45393;BMP280;31129;44.810;10.334;2023-05-07T12:16:27;100718.91;;;27.96
45393;BMP280;31129;44.810;10.334;2023-05-07T12:18:56;100715.59;;;28.09
45393;BMP280;31129;44.810;10.334;2023-05-07T12:21:24;100709.19;;;28.18
45393;BMP280;31129;44.810;10.334;2023-05-07T12:23:50;100718.50;;;27.71
45393;BMP280;31129;44.810;10.334;2023-05-07T12:26:16;100716.09;;;27.77
45393;BMP280;31129;44.810;10.334;2023-05-07T12:28:42;100717.69;;;27.99
45393;BMP280;31129;44.810;10.334;2023-05-07T12:31:11;100717.09;;;28.10
45393;BMP280;31129;44.810;10.334;2023-05-07T12:33:36;100717.44;;;28.26
45393;BMP280;31129;44.810;10.334;2023-05-07T12:36:08;100711.84;;;27.85
45393;BMP280;31129;44.810;10.334;2023-05-07T12:38:40;100715.66;;;27.90
45393;BMP280;31129;44.810;10.334;2023-05-07T12:41:12;100713.91;;;28.25
45393;BMP280;31129;44.810;10.334;2023-05-07T12:43:44;100713.81;;;28.66
45393;BMP280;31129;44.810;10.334;2023-05-07T12:46:10;100719.16;;;29.04
45393;BMP280;31129;44.810;10.334;2023-05-07T12:48:37;100717.22;;;28.64
45393;BMP280;31129;44.810;10.334;2023-05-07T12:51:03;100715.34;;;28.99
45393;BMP280;31129;44.810;10.334;2023-05-07T12:53:30;100719.72;;;29.24
45393;BMP280;31129;44.810;10.334;2023-05-07T12:55:58;100716.56;;;28.75
45393;BMP280;31129;44.810;10.334;2023-05-07T12:58:29;100710.97;;;29.41
45393;BMP280;31129;44.810;10.334;2023-05-07T13:00:57;100704.94;;;29.79
45393;BMP280;31129;44.810;10.334;2023-05-07T13:03:30;100709.09;;;30.01
45393;BMP280;31129;44.810;10.334;2023-05-07T13:05:56;100700.28;;;29.95
45393;BMP280;31129;44.810;10.334;2023-05-07T13:08:33;100698.81;;;28.94
45393;BMP280;31129;44.810;10.334;2023-05-07T13:11:03;100695.38;;;28.53
45393;BMP280;31129;44.810;10.334;2023-05-07T13:13:33;100697.09;;;28.68
45393;BMP280;31129;44.810;10.334;2023-05-07T13:16:00;100695.28;;;28.72
45393;BMP280;31129;44.810;10.334;2023-05-07T13:18:27;100682.09;;;27.92
45393;BMP280;31129;44.810;10.334;2023-05-07T13:20:53;100684.25;;;27.62
45393;BMP280;31129;44.810;10.334;2023-05-07T13:23:19;100682.38;;;27.46
45393;BMP280;31129;44.810;10.334;2023-05-07T13:25:44;100679.59;;;27.27
45393;BMP280;31129;44.810;10.334;2023-05-07T13:28:10;100687.72;;;27.92
45393;BMP280;31129;44.810;10.334;2023-05-07T13:30:36;100675.94;;;28.67
45393;BMP280;31129;44.810;10.334;2023-05-07T13:33:01;100665.91;;;28.42
45393;BMP280;31129;44.810;10.334;2023-05-07T13:35:27;100670.84;;;28.53
45393;BMP280;31129;44.810;10.334;2023-05-07T13:37:53;100665.66;;;28.59
45393;BMP280;31129;44.810;10.334;2023-05-07T13:40:21;100660.75;;;28.60
45393;BMP280;31129;44.810;10.334;2023-05-07T13:42:47;100660.41;;;28.87
45393;BMP280;31129;44.810;10.334;2023-05-07T13:45:17;100659.78;;;29.21
45393;BMP280;31129;44.810;10.334;2023-05-07T13:47:43;100659.69;;;28.65
45393;BMP280;31129;44.810;10.334;2023-05-07T13:50:09;100656.00;;;29.28
45393;BMP280;31129;44.810;10.334;2023-05-07T13:52:36;100652.03;;;29.89
45393;BMP280;31129;44.810;10.334;2023-05-07T13:55:02;100656.56;;;29.83
45393;BMP280;31129;44.810;10.334;2023-05-07T13:57:28;100658.41;;;30.13
45393;BMP280;31129;44.810;10.334;2023-05-07T13:59:54;100659.38;;;30.06
45393;BMP280;31129;44.810;10.334;2023-05-07T14:02:20;100648.38;;;30.10
45393;BMP280;31129;44.810;10.334;2023-05-07T14:04:46;100643.56;;;30.24
45393;BMP280;31129;44.810;10.334;2023-05-07T14:07:11;100648.34;;;30.70
45393;BMP280;31129;44.810;10.334;2023-05-07T14:09:37;100642.56;;;30.68
45393;BMP280;31129;44.810;10.334;2023-05-07T14:12:03;100649.22;;;31.11